sensor_id;sensor_type;location;lat;lon;timestamp;P1;durP1;ratioP1;P2;durP2;ratioP2
74894;SDS011;63447;49.446;8.666;2022-12-18T00:01:12;54.83;;;21.23;;
74894;SDS011;63447;49.446;8.666;2022-12-18T00:03:51;44.40;;;17.45;;
74894;SDS011;63447;49.446;8.666;2022-12-18T00:06:17;39.80;;;17.67;;
74894;SDS011;63447;49.446;8.666;2022-12-18T00:08:46;52.20;;;19.90;;
74894;SDS011;63447;49.446;8.666;2022-12-18T00:11:19;45.88;;;17.80;;
74894;SDS011;63447;49.446;8.666;2022-12-18T00:13:48;46.25;;;18.90;;
74894;SDS011;63447;49.446;8.666;2022-12-18T00:16:18;51.95;;;19.75;;
74894;SDS011;63447;49.446;8.666;2022-12-18T00:18:50;47.70;;;20.52;;
74894;SDS011;63447;49.446;8.666;2022-12-18T00:21:17;52.42;;;19.92;;
74894;SDS011;63447;49.446;8.666;2022-12-18T00:23:44;46.58;;;18.67;;
74894;SDS011;63447;49.446;8.666;2022-12-18T00:28:37;37.47;;;15.52;;
74894;SDS011;63447;49.446;8.666;2022-12-18T00:31:03;45.83;;;19.80;;
74894;SDS011;63447;49.446;8.666;2022-12-18T00:33:41;50.30;;;20.10;;
74894;SDS011;63447;49.446;8.666;2022-12-18T00:36:08;43.88;;;19.23;;
74894;SDS011;63447;49.446;8.666;2022-12-18T00:38:36;44.00;;;18.60;;
74894;SDS011;63447;49.446;8.666;2022-12-18T00:41:03;45.83;;;17.75;;
74894;SDS011;63447;49.446;8.666;2022-12-18T00:43:35;51.03;;;20.33;;
74894;SDS011;63447;49.446;8.666;2022-12-18T00:46:04;51.25;;;20.42;;
74894;SDS011;63447;49.446;8.666;2022-12-18T00:48:31;47.28;;;20.88;;
74894;SDS011;63447;49.446;8.666;2022-12-18T00:50:57;42.50;;;18.15;;
74894;SDS011;63447;49.446;8.666;2022-12-18T00:53:22;48.20;;;18.98;;
74894;SDS011;63447;49.446;8.666;2022-12-18T00:55:50;44.58;;;17.73;;
74894;SDS011;63447;49.446;8.666;2022-12-18T00:58:19;50.28;;;19.38;;
74894;SDS011;63447;49.446;8.666;2022-12-18T01:00:47;45.13;;;17.92;;
74894;SDS011;63447;49.446;8.666;2022-12-18T01:03:13;46.47;;;19.58;;
74894;SDS011;63447;49.446;8.666;2022-12-18T01:05:44;47.83;;;18.70;;
74894;SDS011;63447;49.446;8.666;2022-12-18T01:08:12;45.55;;;18.60;;
74894;SDS011;63447;49.446;8.666;2022-12-18T01:10:39;44.87;;;18.60;;
74894;SDS011;63447;49.446;8.666;2022-12-18T01:13:10;43.33;;;19.27;;
74894;SDS011;63447;49.446;8.666;2022-12-18T01:15:38;49.13;;;20.87;;
74894;SDS011;63447;49.446;8.666;2022-12-18T01:18:06;44.80;;;16.52;;
74894;SDS011;63447;49.446;8.666;2022-12-18T01:20:32;44.63;;;18.27;;
74894;SDS011;63447;49.446;8.666;2022-12-18T01:22:57;44.95;;;19.00;;
74894;SDS011;63447;49.446;8.666;2022-12-18T01:25:25;43.10;;;18.27;;
74894;SDS011;63447;49.446;8.666;2022-12-18T01:27:50;42.37;;;17.67;;
74894;SDS011;63447;49.446;8.666;2022-12-18T01:30:16;43.37;;;19.17;;
74894;SDS011;63447;49.446;8.666;2022-12-18T01:32:41;42.97;;;17.63;;
74894;SDS011;63447;49.446;8.666;2022-12-18T01:35:06;49.03;;;19.93;;
74894;SDS011;63447;49.446;8.666;2022-12-18T01:37:32;38.78;;;15.50;;
74894;SDS011;63447;49.446;8.666;2022-12-18T01:40:00;47.00;;;17.35;;
74894;SDS011;63447;49.446;8.666;2022-12-18T01:42:28;41.13;;;16.92;;
74894;SDS011;63447;49.446;8.666;2022-12-18T01:45:04;45.47;;;19.20;;
74894;SDS011;63447;49.446;8.666;2022-12-18T01:52:46;42.58;;;17.73;;
74894;SDS011;63447;49.446;8.666;2022-12-18T01:55:14;41.78;;;17.38;;
74894;SDS011;63447;49.446;8.666;2022-12-18T01:57:43;39.03;;;16.48;;
74894;SDS011;63447;49.446;8.666;2022-12-18T02:00:13;44.42;;;18.15;;
74894;SDS011;63447;49.446;8.666;2022-12-18T02:02:42;37.20;;;16.55;;
74894;SDS011;63447;49.446;8.666;2022-12-18T02:05:09;41.25;;;17.02;;
74894;SDS011;63447;49.446;8.666;2022-12-18T02:13:52;52.95;;;19.27;;
74894;SDS011;63447;49.446;8.666;2022-12-18T02:16:30;39.28;;;16.00;;
74894;SDS011;63447;49.446;8.666;2022-12-18T02:19:00;45.97;;;19.13;;
74894;SDS011;63447;49.446;8.666;2022-12-18T02:21:57;46.30;;;18.08;;
74894;SDS011;63447;49.446;8.666;2022-12-18T02:24:31;42.65;;;17.33;;
74894;SDS011;63447;49.446;8.666;2022-12-18T02:27:06;48.63;;;18.38;;
74894;SDS011;63447;49.446;8.666;2022-12-18T02:29:45;39.80;;;17.88;;
74894;SDS011;63447;49.446;8.666;2022-12-18T02:32:13;49.10;;;20.25;;
74894;SDS011;63447;49.446;8.666;2022-12-18T02:34:48;46.83;;;18.33;;
74894;SDS011;63447;49.446;8.666;2022-12-18T02:37:18;40.97;;;19.00;;
74894;SDS011;63447;49.446;8.666;2022-12-18T02:39:46;46.95;;;18.38;;
74894;SDS011;63447;49.446;8.666;2022-12-18T02:42:20;51.72;;;19.55;;
74894;SDS011;63447;49.446;8.666;2022-12-18T02:44:50;38.75;;;17.35;;
74894;SDS011;63447;49.446;8.666;2022-12-18T02:47:17;39.28;;;16.67;;
74894;SDS011;63447;49.446;8.666;2022-12-18T02:54:59;42.58;;;18.27;;
74894;SDS011;63447;49.446;8.666;2022-12-18T02:57:34;39.22;;;17.02;;
74894;SDS011;63447;49.446;8.666;2022-12-18T03:00:09;43.70;;;18.23;;
74894;SDS011;63447;49.446;8.666;2022-12-18T03:02:57;43.47;;;18.80;;
74894;SDS011;63447;49.446;8.666;2022-12-18T03:05:31;42.08;;;16.88;;
74894;SDS011;63447;49.446;8.666;2022-12-18T03:08:03;39.35;;;17.13;;
74894;SDS011;63447;49.446;8.666;2022-12-18T03:10:38;39.78;;;16.90;;
74894;SDS011;63447;49.446;8.666;2022-12-18T03:13:09;42.13;;;17.55;;
74894;SDS011;63447;49.446;8.666;2022-12-18T03:15:41;47.17;;;19.17;;
74894;SDS011;63447;49.446;8.666;2022-12-18T03:18:21;47.13;;;19.75;;
74894;SDS011;63447;49.446;8.666;2022-12-18T03:20:53;42.80;;;19.13;;
74894;SDS011;63447;49.446;8.666;2022-12-18T03:23:27;43.20;;;18.90;;
74894;SDS011;63447;49.446;8.666;2022-12-18T03:25:57;48.08;;;18.10;;
74894;SDS011;63447;49.446;8.666;2022-12-18T03:28:26;38.95;;;17.42;;
74894;SDS011;63447;49.446;8.666;2022-12-18T03:30:57;37.30;;;16.92;;
74894;SDS011;63447;49.446;8.666;2022-12-18T03:33:27;39.65;;;17.42;;
74894;SDS011;63447;49.446;8.666;2022-12-18T03:35:57;37.67;;;16.45;;
74894;SDS011;63447;49.446;8.666;2022-12-18T03:38:23;41.15;;;18.70;;
74894;SDS011;63447;49.446;8.666;2022-12-18T03:45:54;36.53;;;16.30;;
74894;SDS011;63447;49.446;8.666;2022-12-18T03:48:31;44.00;;;16.48;;
74894;SDS011;63447;49.446;8.666;2022-12-18T03:51:07;39.72;;;17.17;;
74894;SDS011;63447;49.446;8.666;2022-12-18T03:56:14;41.00;;;16.67;;
74894;SDS011;63447;49.446;8.666;2022-12-18T03:58:41;43.88;;;17.65;;
74894;SDS011;63447;49.446;8.666;2022-12-18T04:01:09;37.83;;;17.02;;
74894;SDS011;63447;49.446;8.666;2022-12-18T04:03:37;41.70;;;16.95;;
74894;SDS011;63447;49.446;8.666;2022-12-18T04:06:03;41.22;;;17.25;;
74894;SDS011;63447;49.446;8.666;2022-12-18T04:08:34;38.42;;;17.05;;
74894;SDS011;63447;49.446;8.666;2022-12-18T04:11:00;45.30;;;17.77;;
74894;SDS011;63447;49.446;8.666;2022-12-18T04:15:59;33.95;;;14.52;;
74894;SDS011;63447;49.446;8.666;2022-12-18T04:18:24;39.90;;;16.42;;
74894;SDS011;63447;49.446;8.666;2022-12-18T04:20:49;36.57;;;15.53;;
74894;SDS011;63447;49.446;8.666;2022-12-18T04:23:15;39.17;;;16.80;;
74894;SDS011;63447;49.446;8.666;2022-12-18T04:25:40;32.50;;;14.93;;
74894;SDS011;63447;49.446;8.666;2022-12-18T04:28:08;40.80;;;17.23;;
74894;SDS011;63447;49.446;8.666;2022-12-18T04:30:33;37.73;;;14.67;;
74894;SDS011;63447;49.446;8.666;2022-12-18T04:32:58;40.28;;;17.50;;
74894;SDS011;63447;49.446;8.666;2022-12-18T04:35:24;42.85;;;16.38;;
74894;SDS011;63447;49.446;8.666;2022-12-18T04:37:52;41.22;;;16.15;;
74894;SDS011;63447;49.446;8.666;2022-12-18T04:40:17;43.43;;;16.93;;
74894;SDS011;63447;49.446;8.666;2022-12-18T04:42:42;38.47;;;17.23;;
74894;SDS011;63447;49.446;8.666;2022-12-18T04:45:10;41.28;;;17.83;;
74894;SDS011;63447;49.446;8.666;2022-12-18T04:47:38;43.43;;;16.97;;
74894;SDS011;63447;49.446;8.666;2022-12-18T04:50:05;36.40;;;16.05;;
74894;SDS011;63447;49.446;8.666;2022-12-18T04:52:33;38.53;;;16.73;;
74894;SDS011;63447;49.446;8.666;2022-12-18T04:54:59;42.67;;;17.42;;
74894;SDS011;63447;49.446;8.666;2022-12-18T04:57:29;39.95;;;16.42;;
74894;SDS011;63447;49.446;8.666;2022-12-18T04:59:57;40.40;;;17.83;;
74894;SDS011;63447;49.446;8.666;2022-12-18T05:02:25;42.47;;;17.08;;
74894;SDS011;63447;49.446;8.666;2022-12-18T05:04:52;37.63;;;15.47;;
74894;SDS011;63447;49.446;8.666;2022-12-18T05:07:17;39.70;;;17.55;;
74894;SDS011;63447;49.446;8.666;2022-12-18T05:09:47;40.22;;;15.38;;
74894;SDS011;63447;49.446;8.666;2022-12-18T05:12:13;36.65;;;16.27;;
74894;SDS011;63447;49.446;8.666;2022-12-18T05:14:38;39.57;;;16.50;;
74894;SDS011;63447;49.446;8.666;2022-12-18T05:17:03;37.43;;;15.67;;
74894;SDS011;63447;49.446;8.666;2022-12-18T05:19:29;41.33;;;17.63;;
74894;SDS011;63447;49.446;8.666;2022-12-18T05:21:54;38.27;;;16.13;;
74894;SDS011;63447;49.446;8.666;2022-12-18T05:24:19;42.43;;;15.97;;
74894;SDS011;63447;49.446;8.666;2022-12-18T05:26:45;36.50;;;14.70;;
74894;SDS011;63447;49.446;8.666;2022-12-18T05:29:12;39.63;;;16.67;;
74894;SDS011;63447;49.446;8.666;2022-12-18T05:31:38;43.13;;;17.02;;
74894;SDS011;63447;49.446;8.666;2022-12-18T05:34:08;46.15;;;19.13;;
74894;SDS011;63447;49.446;8.666;2022-12-18T05:36:33;38.92;;;17.17;;
74894;SDS011;63447;49.446;8.666;2022-12-18T05:38:59;40.65;;;17.10;;
74894;SDS011;63447;49.446;8.666;2022-12-18T05:41:25;41.80;;;16.13;;
74894;SDS011;63447;49.446;8.666;2022-12-18T05:43:50;39.88;;;16.65;;
74894;SDS011;63447;49.446;8.666;2022-12-18T05:46:17;39.55;;;17.77;;
74894;SDS011;63447;49.446;8.666;2022-12-18T05:51:14;41.30;;;16.58;;
74894;SDS011;63447;49.446;8.666;2022-12-18T05:53:42;40.40;;;15.98;;
74894;SDS011;63447;49.446;8.666;2022-12-18T05:56:09;36.97;;;15.40;;
74894;SDS011;63447;49.446;8.666;2022-12-18T05:58:36;39.05;;;16.67;;
74894;SDS011;63447;49.446;8.666;2022-12-18T06:01:12;30.92;;;15.25;;
74894;SDS011;63447;49.446;8.666;2022-12-18T06:03:42;36.38;;;14.93;;
74894;SDS011;63447;49.446;8.666;2022-12-18T06:08:42;40.85;;;15.30;;
74894;SDS011;63447;49.446;8.666;2022-12-18T06:11:07;39.72;;;15.85;;
74894;SDS011;63447;49.446;8.666;2022-12-18T06:13:32;38.40;;;15.55;;
74894;SDS011;63447;49.446;8.666;2022-12-18T06:15:59;35.13;;;15.13;;
74894;SDS011;63447;49.446;8.666;2022-12-18T06:18:27;32.45;;;15.57;;
74894;SDS011;63447;49.446;8.666;2022-12-18T06:20:55;35.88;;;14.77;;
74894;SDS011;63447;49.446;8.666;2022-12-18T06:23:24;41.70;;;16.23;;
74894;SDS011;63447;49.446;8.666;2022-12-18T06:25:49;40.33;;;15.77;;
74894;SDS011;63447;49.446;8.666;2022-12-18T06:28:15;35.13;;;14.15;;
74894;SDS011;63447;49.446;8.666;2022-12-18T06:30:43;34.53;;;15.63;;
74894;SDS011;63447;49.446;8.666;2022-12-18T06:33:14;35.90;;;14.80;;
74894;SDS011;63447;49.446;8.666;2022-12-18T06:38:08;34.95;;;15.13;;
74894;SDS011;63447;49.446;8.666;2022-12-18T06:40:34;33.35;;;14.30;;
74894;SDS011;63447;49.446;8.666;2022-12-18T06:42:59;37.57;;;15.30;;
74894;SDS011;63447;49.446;8.666;2022-12-18T06:45:25;36.33;;;15.02;;
74894;SDS011;63447;49.446;8.666;2022-12-18T06:47:50;37.78;;;15.98;;
74894;SDS011;63447;49.446;8.666;2022-12-18T06:50:16;35.42;;;14.25;;
74894;SDS011;63447;49.446;8.666;2022-12-18T06:52:46;44.78;;;17.27;;
74894;SDS011;63447;49.446;8.666;2022-12-18T06:55:12;42.97;;;16.40;;
74894;SDS011;63447;49.446;8.666;2022-12-18T06:57:37;38.30;;;16.27;;
74894;SDS011;63447;49.446;8.666;2022-12-18T07:00:03;34.17;;;15.52;;
74894;SDS011;63447;49.446;8.666;2022-12-18T07:02:31;38.60;;;14.45;;
74894;SDS011;63447;49.446;8.666;2022-12-18T07:04:56;43.15;;;16.88;;
74894;SDS011;63447;49.446;8.666;2022-12-18T07:07:22;37.27;;;16.10;;
74894;SDS011;63447;49.446;8.666;2022-12-18T07:09:49;37.93;;;15.43;;
74894;SDS011;63447;49.446;8.666;2022-12-18T07:12:17;38.20;;;15.57;;
74894;SDS011;63447;49.446;8.666;2022-12-18T07:14:42;39.15;;;16.45;;
74894;SDS011;63447;49.446;8.666;2022-12-18T07:17:08;45.28;;;16.95;;
74894;SDS011;63447;49.446;8.666;2022-12-18T07:19:33;48.17;;;17.33;;
74894;SDS011;63447;49.446;8.666;2022-12-18T07:21:59;43.47;;;16.48;;
74894;SDS011;63447;49.446;8.666;2022-12-18T07:24:24;42.38;;;18.40;;
74894;SDS011;63447;49.446;8.666;2022-12-18T07:26:49;45.13;;;18.67;;
74894;SDS011;63447;49.446;8.666;2022-12-18T07:29:15;41.67;;;17.30;;
74894;SDS011;63447;49.446;8.666;2022-12-18T07:31:45;45.08;;;18.40;;
74894;SDS011;63447;49.446;8.666;2022-12-18T07:34:11;42.15;;;17.65;;
74894;SDS011;63447;49.446;8.666;2022-12-18T07:36:37;46.72;;;16.75;;
74894;SDS011;63447;49.446;8.666;2022-12-18T07:39:03;46.97;;;19.08;;
74894;SDS011;63447;49.446;8.666;2022-12-18T07:41:29;49.55;;;20.35;;
74894;SDS011;63447;49.446;8.666;2022-12-18T07:43:54;45.13;;;19.00;;
74894;SDS011;63447;49.446;8.666;2022-12-18T07:46:19;45.13;;;18.30;;
74894;SDS011;63447;49.446;8.666;2022-12-18T07:48:45;45.63;;;18.27;;
74894;SDS011;63447;49.446;8.666;2022-12-18T07:51:13;42.55;;;16.75;;
74894;SDS011;63447;49.446;8.666;2022-12-18T07:53:42;35.80;;;14.70;;
74894;SDS011;63447;49.446;8.666;2022-12-18T07:56:08;48.90;;;18.00;;
74894;SDS011;63447;49.446;8.666;2022-12-18T07:58:38;46.95;;;17.95;;
74894;SDS011;63447;49.446;8.666;2022-12-18T08:01:04;47.90;;;17.00;;
74894;SDS011;63447;49.446;8.666;2022-12-18T08:03:39;41.92;;;15.93;;
74894;SDS011;63447;49.446;8.666;2022-12-18T08:06:06;42.17;;;17.10;;
74894;SDS011;63447;49.446;8.666;2022-12-18T08:08:33;37.97;;;16.75;;
74894;SDS011;63447;49.446;8.666;2022-12-18T08:10:59;38.55;;;16.85;;
74894;SDS011;63447;49.446;8.666;2022-12-18T08:13:24;39.00;;;15.88;;
74894;SDS011;63447;49.446;8.666;2022-12-18T08:18:22;45.45;;;17.90;;
74894;SDS011;63447;49.446;8.666;2022-12-18T08:20:48;38.67;;;17.00;;
74894;SDS011;63447;49.446;8.666;2022-12-18T08:23:17;42.45;;;17.23;;
74894;SDS011;63447;49.446;8.666;2022-12-18T08:25:42;42.13;;;18.27;;
74894;SDS011;63447;49.446;8.666;2022-12-18T08:28:07;45.73;;;18.90;;
74894;SDS011;63447;49.446;8.666;2022-12-18T08:30:36;40.88;;;15.82;;
74894;SDS011;63447;49.446;8.666;2022-12-18T08:33:02;46.50;;;18.80;;
74894;SDS011;63447;49.446;8.666;2022-12-18T08:37:55;37.20;;;15.07;;
74894;SDS011;63447;49.446;8.666;2022-12-18T08:40:21;37.58;;;15.10;;
74894;SDS011;63447;49.446;8.666;2022-12-18T08:42:46;35.87;;;17.03;;
74894;SDS011;63447;49.446;8.666;2022-12-18T08:45:33;43.95;;;17.70;;
74894;SDS011;63447;49.446;8.666;2022-12-18T08:47:59;40.33;;;16.95;;
74894;SDS011;63447;49.446;8.666;2022-12-18T08:50:24;38.50;;;16.63;;
74894;SDS011;63447;49.446;8.666;2022-12-18T08:52:49;39.42;;;17.35;;
74894;SDS011;63447;49.446;8.666;2022-12-18T08:55:15;35.70;;;15.63;;
74894;SDS011;63447;49.446;8.666;2022-12-18T08:57:40;40.10;;;18.95;;
74894;SDS011;63447;49.446;8.666;2022-12-18T09:00:06;40.97;;;17.90;;
74894;SDS011;63447;49.446;8.666;2022-12-18T09:02:41;39.17;;;18.38;;
74894;SDS011;63447;49.446;8.666;2022-12-18T09:05:07;43.63;;;18.90;;
74894;SDS011;63447;49.446;8.666;2022-12-18T09:07:35;40.67;;;18.65;;
74894;SDS011;63447;49.446;8.666;2022-12-18T09:10:53;39.42;;;17.20;;
74894;SDS011;63447;49.446;8.666;2022-12-18T09:17:02;41.70;;;17.95;;
74894;SDS011;63447;49.446;8.666;2022-12-18T09:23:12;42.13;;;18.02;;
74894;SDS011;63447;49.446;8.666;2022-12-18T09:26:07;40.72;;;17.05;;
74894;SDS011;63447;49.446;8.666;2022-12-18T09:31:27;35.08;;;16.45;;
74894;SDS011;63447;49.446;8.666;2022-12-18T09:33:57;38.20;;;17.67;;
74894;SDS011;63447;49.446;8.666;2022-12-18T09:36:25;39.25;;;17.80;;
74894;SDS011;63447;49.446;8.666;2022-12-18T09:38:55;35.55;;;16.70;;
74894;SDS011;63447;49.446;8.666;2022-12-18T09:41:39;35.88;;;16.80;;
74894;SDS011;63447;49.446;8.666;2022-12-18T09:44:29;35.65;;;17.45;;
74894;SDS011;63447;49.446;8.666;2022-12-18T09:49:55;37.75;;;16.92;;
74894;SDS011;63447;49.446;8.666;2022-12-18T09:52:29;35.20;;;17.38;;
74894;SDS011;63447;49.446;8.666;2022-12-18T10:00:48;39.67;;;17.65;;
74894;SDS011;63447;49.446;8.666;2022-12-18T10:03:28;36.97;;;17.55;;
74894;SDS011;63447;49.446;8.666;2022-12-18T10:11:31;38.67;;;17.33;;
74894;SDS011;63447;49.446;8.666;2022-12-18T10:17:46;36.63;;;17.60;;
74894;SDS011;63447;49.446;8.666;2022-12-18T10:26:30;37.83;;;18.10;;
74894;SDS011;63447;49.446;8.666;2022-12-18T10:28:57;37.80;;;18.58;;
74894;SDS011;63447;49.446;8.666;2022-12-18T10:31:28;41.33;;;18.10;;
74894;SDS011;63447;49.446;8.666;2022-12-18T10:33:57;40.30;;;20.63;;
74894;SDS011;63447;49.446;8.666;2022-12-18T10:36:31;39.60;;;18.55;;
74894;SDS011;63447;49.446;8.666;2022-12-18T10:39:13;42.08;;;21.08;;
74894;SDS011;63447;49.446;8.666;2022-12-18T10:45:03;39.72;;;19.92;;
74894;SDS011;63447;49.446;8.666;2022-12-18T10:47:57;39.05;;;19.67;;
74894;SDS011;63447;49.446;8.666;2022-12-18T10:50:31;39.65;;;20.63;;
74894;SDS011;63447;49.446;8.666;2022-12-18T10:53:04;37.13;;;19.20;;
74894;SDS011;63447;49.446;8.666;2022-12-18T10:55:34;39.40;;;19.77;;
74894;SDS011;63447;49.446;8.666;2022-12-18T10:58:37;39.95;;;18.70;;
74894;SDS011;63447;49.446;8.666;2022-12-18T11:04:01;36.97;;;17.77;;
74894;SDS011;63447;49.446;8.666;2022-12-18T11:06:54;35.75;;;19.52;;
74894;SDS011;63447;49.446;8.666;2022-12-18T11:11:58;33.80;;;17.75;;
74894;SDS011;63447;49.446;8.666;2022-12-18T11:14:41;40.08;;;19.50;;
74894;SDS011;63447;49.446;8.666;2022-12-18T11:20:41;38.35;;;19.30;;
74894;SDS011;63447;49.446;8.666;2022-12-18T11:26:04;40.88;;;20.27;;
74894;SDS011;63447;49.446;8.666;2022-12-18T11:29:07;39.83;;;21.17;;
74894;SDS011;63447;49.446;8.666;2022-12-18T11:31:34;38.53;;;20.45;;
74894;SDS011;63447;49.446;8.666;2022-12-18T11:36:41;37.95;;;19.70;;
74894;SDS011;63447;49.446;8.666;2022-12-18T11:39:11;37.65;;;18.88;;
74894;SDS011;63447;49.446;8.666;2022-12-18T11:44:41;40.83;;;20.95;;
74894;SDS011;63447;49.446;8.666;2022-12-18T11:50:25;41.40;;;21.02;;
74894;SDS011;63447;49.446;8.666;2022-12-18T11:52:51;41.55;;;20.20;;
74894;SDS011;63447;49.446;8.666;2022-12-18T12:00:26;42.65;;;21.60;;
74894;SDS011;63447;49.446;8.666;2022-12-18T12:14:06;43.60;;;21.95;;
74894;SDS011;63447;49.446;8.666;2022-12-18T12:19:26;46.55;;;23.20;;
74894;SDS011;63447;49.446;8.666;2022-12-18T12:30:31;41.88;;;21.10;;
74894;SDS011;63447;49.446;8.666;2022-12-18T12:36:09;42.17;;;20.02;;
74894;SDS011;63447;49.446;8.666;2022-12-18T12:38:45;43.35;;;21.40;;
74894;SDS011;63447;49.446;8.666;2022-12-18T12:41:17;42.42;;;22.38;;
74894;SDS011;63447;49.446;8.666;2022-12-18T12:44:07;46.67;;;21.45;;
74894;SDS011;63447;49.446;8.666;2022-12-18T12:46:43;46.95;;;22.27;;
74894;SDS011;63447;49.446;8.666;2022-12-18T12:49:13;42.13;;;20.88;;
74894;SDS011;63447;49.446;8.666;2022-12-18T12:51:43;42.50;;;21.10;;
74894;SDS011;63447;49.446;8.666;2022-12-18T12:54:28;45.95;;;21.95;;
74894;SDS011;63447;49.446;8.666;2022-12-18T13:00:15;45.78;;;21.13;;
74894;SDS011;63447;49.446;8.666;2022-12-18T13:02:59;37.15;;;17.92;;
74894;SDS011;63447;49.446;8.666;2022-12-18T13:05:43;37.80;;;17.65;;
74894;SDS011;63447;49.446;8.666;2022-12-18T13:08:23;35.70;;;16.38;;
74894;SDS011;63447;49.446;8.666;2022-12-18T13:10:57;41.17;;;18.27;;
74894;SDS011;63447;49.446;8.666;2022-12-18T13:16:13;34.25;;;15.52;;
74894;SDS011;63447;49.446;8.666;2022-12-18T13:18:50;32.67;;;15.05;;
74894;SDS011;63447;49.446;8.666;2022-12-18T13:21:23;33.60;;;16.10;;
74894;SDS011;63447;49.446;8.666;2022-12-18T13:23:52;33.58;;;14.77;;
74894;SDS011;63447;49.446;8.666;2022-12-18T13:31:15;42.10;;;20.27;;
74894;SDS011;63447;49.446;8.666;2022-12-18T13:36:46;43.17;;;20.77;;
74894;SDS011;63447;49.446;8.666;2022-12-18T13:41:53;44.78;;;21.27;;
74894;SDS011;63447;49.446;8.666;2022-12-18T13:44:59;42.90;;;20.17;;
74894;SDS011;63447;49.446;8.666;2022-12-18T13:47:32;44.95;;;21.20;;
74894;SDS011;63447;49.446;8.666;2022-12-18T13:50:00;44.05;;;20.38;;
74894;SDS011;63447;49.446;8.666;2022-12-18T13:52:35;47.08;;;21.45;;
74894;SDS011;63447;49.446;8.666;2022-12-18T13:55:05;48.85;;;23.00;;
74894;SDS011;63447;49.446;8.666;2022-12-18T13:57:40;43.95;;;21.35;;
74894;SDS011;63447;49.446;8.666;2022-12-18T14:00:40;46.13;;;20.88;;
74894;SDS011;63447;49.446;8.666;2022-12-18T14:02:57;46.72;;;21.55;;
74894;SDS011;63447;49.446;8.666;2022-12-18T14:07:52;39.85;;;19.63;;
74894;SDS011;63447;49.446;8.666;2022-12-18T14:10:18;42.95;;;19.80;;
74894;SDS011;63447;49.446;8.666;2022-12-18T14:12:49;44.67;;;20.67;;
74894;SDS011;63447;49.446;8.666;2022-12-18T14:17:55;46.17;;;21.38;;
74894;SDS011;63447;49.446;8.666;2022-12-18T14:20:32;49.78;;;23.10;;
74894;SDS011;63447;49.446;8.666;2022-12-18T14:23:04;50.05;;;21.75;;
74894;SDS011;63447;49.446;8.666;2022-12-18T14:25:32;45.35;;;20.95;;
74894;SDS011;63447;49.446;8.666;2022-12-18T14:35:37;46.53;;;21.30;;
74894;SDS011;63447;49.446;8.666;2022-12-18T14:41:23;46.60;;;22.17;;
74894;SDS011;63447;49.446;8.666;2022-12-18T14:43:43;49.08;;;23.20;;
74894;SDS011;63447;49.446;8.666;2022-12-18T14:51:47;50.60;;;22.77;;
74894;SDS011;63447;49.446;8.666;2022-12-18T14:54:15;50.22;;;24.90;;
74894;SDS011;63447;49.446;8.666;2022-12-18T14:56:47;50.92;;;23.27;;
74894;SDS011;63447;49.446;8.666;2022-12-18T14:59:20;47.47;;;23.02;;
74894;SDS011;63447;49.446;8.666;2022-12-18T15:04:34;54.33;;;23.77;;
74894;SDS011;63447;49.446;8.666;2022-12-18T15:09:37;57.20;;;25.25;;
74894;SDS011;63447;49.446;8.666;2022-12-18T15:12:22;50.65;;;25.05;;
74894;SDS011;63447;49.446;8.666;2022-12-18T15:15:00;51.05;;;22.83;;
74894;SDS011;63447;49.446;8.666;2022-12-18T15:17:27;52.90;;;23.98;;
74894;SDS011;63447;49.446;8.666;2022-12-18T15:19:58;52.15;;;24.95;;
74894;SDS011;63447;49.446;8.666;2022-12-18T15:22:30;57.08;;;25.48;;
74894;SDS011;63447;49.446;8.666;2022-12-18T15:25:01;59.72;;;24.90;;
74894;SDS011;63447;49.446;8.666;2022-12-18T15:27:32;58.58;;;27.02;;
74894;SDS011;63447;49.446;8.666;2022-12-18T15:32:35;53.97;;;27.52;;
74894;SDS011;63447;49.446;8.666;2022-12-18T15:35:12;58.80;;;27.92;;
74894;SDS011;63447;49.446;8.666;2022-12-18T15:37:43;57.47;;;27.02;;
74894;SDS011;63447;49.446;8.666;2022-12-18T15:40:13;51.22;;;22.70;;
74894;SDS011;63447;49.446;8.666;2022-12-18T15:42:51;51.97;;;23.77;;
74894;SDS011;63447;49.446;8.666;2022-12-18T15:45:38;53.58;;;26.20;;
74894;SDS011;63447;49.446;8.666;2022-12-18T15:48:20;53.42;;;24.85;;
74894;SDS011;63447;49.446;8.666;2022-12-18T15:50:46;57.45;;;25.33;;
74894;SDS011;63447;49.446;8.666;2022-12-18T15:53:14;51.67;;;26.15;;
74894;SDS011;63447;49.446;8.666;2022-12-18T15:55:39;51.80;;;25.98;;
74894;SDS011;63447;49.446;8.666;2022-12-18T15:58:24;57.75;;;25.77;;
74894;SDS011;63447;49.446;8.666;2022-12-18T16:00:49;51.65;;;26.00;;
74894;SDS011;63447;49.446;8.666;2022-12-18T16:03:17;52.65;;;23.63;;
74894;SDS011;63447;49.446;8.666;2022-12-18T16:05:49;59.17;;;27.52;;
74894;SDS011;63447;49.446;8.666;2022-12-18T16:08:17;59.40;;;28.60;;
74894;SDS011;63447;49.446;8.666;2022-12-18T16:10:44;66.30;;;29.20;;
74894;SDS011;63447;49.446;8.666;2022-12-18T16:13:14;63.55;;;29.33;;
74894;SDS011;63447;49.446;8.666;2022-12-18T16:15:42;56.33;;;26.58;;
74894;SDS011;63447;49.446;8.666;2022-12-18T16:18:10;63.38;;;28.88;;
74894;SDS011;63447;49.446;8.666;2022-12-18T16:20:36;60.07;;;28.13;;
74894;SDS011;63447;49.446;8.666;2022-12-18T16:23:03;53.45;;;22.85;;
74894;SDS011;63447;49.446;8.666;2022-12-18T16:25:29;50.58;;;24.30;;
74894;SDS011;63447;49.446;8.666;2022-12-18T16:27:55;52.05;;;25.13;;
74894;SDS011;63447;49.446;8.666;2022-12-18T16:32:48;45.08;;;21.35;;
74894;SDS011;63447;49.446;8.666;2022-12-18T16:35:14;49.90;;;25.80;;
74894;SDS011;63447;49.446;8.666;2022-12-18T16:37:41;54.15;;;27.00;;
74894;SDS011;63447;49.446;8.666;2022-12-18T16:40:07;55.28;;;25.90;;
74894;SDS011;63447;49.446;8.666;2022-12-18T16:42:38;52.33;;;25.88;;
74894;SDS011;63447;49.446;8.666;2022-12-18T16:45:08;56.08;;;26.17;;
74894;SDS011;63447;49.446;8.666;2022-12-18T16:47:37;55.35;;;26.15;;
74894;SDS011;63447;49.446;8.666;2022-12-18T16:50:04;53.90;;;25.15;;
74894;SDS011;63447;49.446;8.666;2022-12-18T16:54:55;52.00;;;22.30;;
74894;SDS011;63447;49.446;8.666;2022-12-18T16:57:23;50.60;;;24.70;;
74894;SDS011;63447;49.446;8.666;2022-12-18T16:59:49;56.72;;;26.75;;
74894;SDS011;63447;49.446;8.666;2022-12-18T17:02:18;55.90;;;24.52;;
74894;SDS011;63447;49.446;8.666;2022-12-18T17:04:45;57.03;;;26.50;;
74894;SDS011;63447;49.446;8.666;2022-12-18T17:07:12;57.38;;;27.65;;
74894;SDS011;63447;49.446;8.666;2022-12-18T17:09:38;54.17;;;28.13;;
74894;SDS011;63447;49.446;8.666;2022-12-18T17:12:04;58.90;;;28.13;;
74894;SDS011;63447;49.446;8.666;2022-12-18T17:14:30;55.92;;;25.88;;
74894;SDS011;63447;49.446;8.666;2022-12-18T17:16:57;51.70;;;23.23;;
74894;SDS011;63447;49.446;8.666;2022-12-18T17:19:24;53.83;;;25.98;;
74894;SDS011;63447;49.446;8.666;2022-12-18T17:21:50;57.78;;;25.42;;
74894;SDS011;63447;49.446;8.666;2022-12-18T17:24:16;47.72;;;23.45;;
74894;SDS011;63447;49.446;8.666;2022-12-18T17:26:46;51.45;;;23.10;;
74894;SDS011;63447;49.446;8.666;2022-12-18T17:29:16;49.42;;;22.02;;
74894;SDS011;63447;49.446;8.666;2022-12-18T17:31:43;53.50;;;23.75;;
74894;SDS011;63447;49.446;8.666;2022-12-18T17:34:10;54.65;;;26.83;;
74894;SDS011;63447;49.446;8.666;2022-12-18T17:36:38;51.25;;;24.98;;
74894;SDS011;63447;49.446;8.666;2022-12-18T17:39:06;51.00;;;24.08;;